KSNA

John Wayne-Orange County Airport

Santa Ana, California, USA
METAR KSNA 232253Z 24006KT 10SM CLR 23/M01 A3008 RMK AO2 SLP186 T02281006
Observed Flight Rules
Jan-23 @ 22:53 UTC (39 minutes ago) Visual Flight Rules
Wind Visibility Clouds
240° at 6 knots 10 miles
  • Clear skies
Temperatures Readings
Current 23°C / 73°F
Dewpoint -1°C / 30°F
Humidity 20%
Altimeter 30.08" Hg
Pressure 1018.6 hPa
Elevation 16
METAR KSNA 232253Z 24006KT 10SM CLR 23/M01 A3008 RMK AO2 SLP186 T02281006
Observed Flight Rules
Jan-23 @ 22:53 UTC
(39 minutes ago)
VFR
Wind Visibility
240° at 6 knots 10 miles
Clouds
  • Clear skies
Temperature Dewpoint
23°C / 73°F -1°C / 30°F
Humidity Altimeter Pressure
20% 30.08" Hg 1018.6 hPa